createdAt,value
2022-11-03T00:02:10.831Z,1010.23
2022-11-03T00:04:43.790Z,1010.21
2022-11-03T00:07:16.857Z,1010.19
2022-11-03T00:09:49.879Z,1010.19
2022-11-03T00:12:22.784Z,1010.18
2022-11-03T00:14:55.882Z,1010.16
2022-11-03T00:17:28.841Z,1010.14
2022-11-03T00:20:01.871Z,1010.11
2022-11-03T00:22:34.922Z,1010.07
2022-11-03T00:25:07.795Z,1010.04
2022-11-03T00:27:40.793Z,1010.01
2022-11-03T00:30:13.777Z,1009.98
2022-11-03T00:32:46.907Z,1009.96
2022-11-03T00:35:19.898Z,1009.92
2022-11-03T00:37:52.949Z,1009.88
2022-11-03T00:40:25.870Z,1009.83
2022-11-03T00:42:59.040Z,1009.78
2022-11-03T00:45:32.905Z,1009.75
2022-11-03T00:48:05.828Z,1009.73
2022-11-03T00:50:38.691Z,1009.69
2022-11-03T00:53:11.849Z,1009.67
2022-11-03T00:55:45.023Z,1009.66
2022-11-03T00:58:18.838Z,1009.64
2022-11-03T01:00:52.034Z,1009.63
2022-11-03T01:03:25.870Z,1009.62
2022-11-03T01:05:58.942Z,1009.61
2022-11-03T01:08:31.893Z,1009.60
2022-11-03T01:11:04.969Z,1009.59
2022-11-03T01:13:37.843Z,1009.59
2022-11-03T01:16:10.836Z,1009.57
2022-11-03T01:18:43.859Z,1009.55
2022-11-03T01:21:16.896Z,1009.52
2022-11-03T01:24:03.862Z,1009.49
2022-11-03T01:26:36.849Z,1009.46
2022-11-03T01:29:09.783Z,1009.43
2022-11-03T01:31:42.964Z,1009.41
2022-11-03T01:34:16.000Z,1009.39
2022-11-03T01:36:48.870Z,1009.38
2022-11-03T01:39:21.926Z,1009.35
2022-11-03T01:41:54.989Z,1009.34
2022-11-03T01:44:28.019Z,1009.33
2022-11-03T01:47:00.993Z,1009.31
2022-11-03T01:49:33.961Z,1009.30
2022-11-03T01:52:07.022Z,1009.28
2022-11-03T01:54:39.960Z,1009.28
2022-11-03T01:57:13.029Z,1009.25
2022-11-03T01:59:45.941Z,1009.21
2022-11-03T02:02:18.922Z,1009.17
2022-11-03T02:04:51.956Z,1009.13
2022-11-03T02:07:25.018Z,1009.09
2022-11-03T02:09:57.991Z,1009.05
2022-11-03T02:12:30.975Z,1009.02
2022-11-03T02:15:04.043Z,1008.98
2022-11-03T02:17:36.963Z,1008.93
2022-11-03T02:20:09.917Z,1008.91
2022-11-03T02:22:42.992Z,1008.87
2022-11-03T02:25:16.078Z,1008.85
2022-11-03T02:27:49.004Z,1008.82
2022-11-03T02:30:22.042Z,1008.77
2022-11-03T02:32:55.082Z,1008.72
2022-11-03T02:35:27.953Z,1008.65
2022-11-03T02:38:01.014Z,1008.58
2022-11-03T02:40:33.811Z,1008.53
2022-11-03T02:43:07.530Z,1008.50
2022-11-03T02:45:40.117Z,1008.44
2022-11-03T02:48:13.061Z,1008.41
2022-11-03T02:50:46.106Z,1008.38
2022-11-03T02:53:19.091Z,1008.37
2022-11-03T02:55:52.114Z,1008.35
2022-11-03T02:58:25.041Z,1008.31
2022-11-03T03:00:58.117Z,1008.28
2022-11-03T03:03:31.102Z,1008.23
2022-11-03T03:06:04.046Z,1008.17
2022-11-03T03:08:37.126Z,1008.12
2022-11-03T03:11:10.030Z,1008.10
2022-11-03T03:13:43.119Z,1008.07
2022-11-03T03:16:16.035Z,1008.06
2022-11-03T03:18:49.059Z,1008.05
2022-11-03T03:24:12.157Z,1008.01
2022-11-03T03:26:45.073Z,1007.97
2022-11-03T03:29:18.080Z,1007.94
2022-11-03T03:31:51.075Z,1007.90
2022-11-03T03:34:34.666Z,1007.85
2022-11-03T03:36:57.160Z,1007.80
2022-11-03T03:39:30.168Z,1007.76
2022-11-03T03:42:03.177Z,1007.74
2022-11-03T03:44:36.106Z,1007.71
2022-11-03T03:47:09.201Z,1007.69
2022-11-03T03:49:42.112Z,1007.67
2022-11-03T03:52:15.064Z,1007.65
2022-11-03T03:54:48.171Z,1007.61
2022-11-03T03:57:21.160Z,1007.60
2022-11-03T03:59:54.232Z,1007.58
2022-11-03T04:02:27.300Z,1007.58
2022-11-03T04:05:00.186Z,1007.55
2022-11-03T04:07:33.150Z,1007.54
2022-11-03T04:10:06.207Z,1007.54
2022-11-03T04:12:39.176Z,1007.53
2022-11-03T04:15:12.191Z,1007.51
2022-11-03T04:17:45.211Z,1007.49
2022-11-03T04:20:18.127Z,1007.48
2022-11-03T04:22:54.167Z,1007.48
2022-11-03T04:25:27.226Z,1007.46
2022-11-03T04:28:00.263Z,1007.45
2022-11-03T04:30:33.214Z,1007.41
2022-11-03T04:33:06.195Z,1007.37
2022-11-03T04:35:38.993Z,1007.33
2022-11-03T04:38:11.850Z,1007.30
2022-11-03T04:40:47.106Z,1007.28
2022-11-03T04:43:18.192Z,1007.23
2022-11-03T04:45:51.278Z,1007.20
2022-11-03T04:48:24.156Z,1007.18
2022-11-03T04:50:57.075Z,1007.16
2022-11-03T04:53:30.195Z,1007.14
2022-11-03T04:56:07.398Z,1007.09
2022-11-03T04:58:36.310Z,1007.09
2022-11-03T05:01:09.217Z,1007.09
2022-11-03T05:03:42.066Z,1007.08
2022-11-03T05:06:15.071Z,1007.08
2022-11-03T05:08:48.017Z,1007.08
2022-11-03T05:11:21.154Z,1007.06
2022-11-03T05:13:54.073Z,1007.02
2022-11-03T05:16:27.202Z,1007.01
2022-11-03T05:19:00.303Z,1006.99
2022-11-03T05:21:33.218Z,1006.96
2022-11-03T05:24:06.344Z,1006.92
2022-11-03T05:26:39.215Z,1006.86
2022-11-03T05:29:12.244Z,1006.82
2022-11-03T05:31:45.301Z,1006.78
2022-11-03T05:34:18.200Z,1006.74
2022-11-03T05:36:51.322Z,1006.72
2022-11-03T05:39:23.986Z,1006.69
2022-11-03T05:41:57.210Z,1006.67
2022-11-03T05:44:30.284Z,1006.64
2022-11-03T05:47:05.947Z,1006.60
2022-11-03T05:49:36.279Z,1006.58
2022-11-03T05:52:09.251Z,1006.55
2022-11-03T05:54:42.326Z,1006.50
2022-11-03T05:57:15.335Z,1006.46
2022-11-03T05:59:48.329Z,1006.40
2022-11-03T06:02:21.508Z,1006.36
2022-11-03T06:04:54.292Z,1006.30
2022-11-03T06:07:27.360Z,1006.26
2022-11-03T06:10:00.316Z,1006.22
2022-11-03T06:12:33.377Z,1006.17
2022-11-03T06:15:06.354Z,1006.13
2022-11-03T06:17:39.285Z,1006.09
2022-11-03T06:20:12.279Z,1006.07
2022-11-03T06:22:45.399Z,1006.04
2022-11-03T06:25:18.306Z,1006.04
2022-11-03T06:27:51.411Z,1006.05
2022-11-03T06:30:24.357Z,1006.07
2022-11-03T06:32:57.017Z,1006.10
2022-11-03T06:35:30.327Z,1006.10
2022-11-03T06:38:03.454Z,1006.10
2022-11-03T06:40:36.192Z,1006.09
2022-11-03T06:43:09.331Z,1006.06
2022-11-03T06:45:42.419Z,1006.02
2022-11-03T06:48:15.326Z,1005.98
2022-11-03T06:50:48.444Z,1005.96
2022-11-03T06:53:21.382Z,1005.93
2022-11-03T06:55:54.448Z,1005.90
2022-11-03T06:58:27.374Z,1005.88
2022-11-03T07:01:03.355Z,1005.86
2022-11-03T07:03:33.631Z,1005.85
2022-11-03T07:06:06.321Z,1005.82
2022-11-03T07:08:39.437Z,1005.80
2022-11-03T07:11:12.450Z,1005.77
2022-11-03T07:13:45.251Z,1005.74
2022-11-03T07:16:19.071Z,1005.70
2022-11-03T07:18:51.269Z,1005.66
2022-11-03T07:21:24.228Z,1005.61
2022-11-03T07:23:57.550Z,1005.57
2022-11-03T07:26:31.359Z,1005.52
2022-11-03T07:29:04.480Z,1005.49
2022-11-03T07:31:37.413Z,1005.46
2022-11-03T07:34:10.487Z,1005.44
2022-11-03T07:36:43.364Z,1005.40
2022-11-03T07:39:16.515Z,1005.39
2022-11-03T07:41:49.410Z,1005.37
2022-11-03T07:44:36.342Z,1005.35
2022-11-03T07:47:09.439Z,1005.33
2022-11-03T07:49:42.439Z,1005.30
2022-11-03T07:52:15.535Z,1005.26
2022-11-03T07:54:48.540Z,1005.21
2022-11-03T07:57:21.541Z,1005.19
2022-11-03T07:59:54.494Z,1005.16
2022-11-03T08:02:27.629Z,1005.12
2022-11-03T08:05:04.500Z,1005.09
2022-11-03T08:07:37.471Z,1005.03
2022-11-03T08:10:10.565Z,1004.98
2022-11-03T08:12:43.528Z,1004.95
2022-11-03T08:15:16.466Z,1004.88
2022-11-03T08:17:53.528Z,1004.84
2022-11-03T08:20:22.499Z,1004.80
2022-11-03T08:23:25.597Z,1004.74
2022-11-03T08:25:28.316Z,1004.69
2022-11-03T08:28:01.551Z,1004.64
2022-11-03T08:30:34.580Z,1004.58
2022-11-03T08:33:07.987Z,1004.54
2022-11-03T08:35:40.610Z,1004.51
2022-11-03T08:38:13.548Z,1004.48
2022-11-03T08:40:50.084Z,1004.45
2022-11-03T08:43:19.488Z,1004.42
2022-11-03T08:45:52.522Z,1004.40
2022-11-03T08:48:25.693Z,1004.39
2022-11-03T08:50:58.567Z,1004.39
2022-11-03T08:53:31.620Z,1004.41
2022-11-03T08:56:06.715Z,1004.40
2022-11-03T08:58:37.649Z,1004.40
2022-11-03T09:01:10.617Z,1004.38
2022-11-03T09:03:43.768Z,1004.36
2022-11-03T09:06:16.708Z,1004.34
2022-11-03T09:11:22.631Z,1004.32
2022-11-03T09:13:55.691Z,1004.31
2022-11-03T09:16:28.678Z,1004.29
2022-11-03T09:19:01.658Z,1004.27
2022-11-03T09:21:34.655Z,1004.23
2022-11-03T09:24:07.654Z,1004.20
2022-11-03T09:26:40.573Z,1004.16
2022-11-03T09:29:13.651Z,1004.13
2022-11-03T09:31:46.564Z,1004.10
2022-11-03T09:34:19.602Z,1004.09
2022-11-03T09:36:53.431Z,1004.05
2022-11-03T09:39:25.665Z,1004.01
2022-11-03T09:41:59.447Z,1003.97
2022-11-03T09:44:31.589Z,1003.91
2022-11-03T09:47:04.593Z,1003.82
2022-11-03T09:49:37.710Z,1003.75
2022-11-03T09:52:10.679Z,1003.68
2022-11-03T09:54:43.663Z,1003.60
2022-11-03T09:57:16.729Z,1003.56
2022-11-03T09:59:49.671Z,1003.52
2022-11-03T10:02:22.819Z,1003.49
2022-11-03T10:04:55.745Z,1003.43
2022-11-03T10:07:28.730Z,1003.35
2022-11-03T10:10:01.620Z,1003.29
2022-11-03T10:12:34.645Z,1003.22
2022-11-03T10:15:07.723Z,1003.19
2022-11-03T10:17:40.625Z,1003.15
2022-11-03T10:20:13.689Z,1003.12
2022-11-03T10:22:46.762Z,1003.07
2022-11-03T10:25:19.738Z,1003.03
2022-11-03T10:27:52.733Z,1002.99
2022-11-03T10:30:26.298Z,1002.96
2022-11-03T10:32:58.677Z,1002.91
2022-11-03T10:35:31.775Z,1002.85
2022-11-03T10:38:04.687Z,1002.82
2022-11-03T10:40:49.499Z,1002.79
2022-11-03T10:43:10.544Z,1002.78
2022-11-03T10:45:43.800Z,1002.76
2022-11-03T10:48:16.703Z,1002.72
2022-11-03T10:50:49.739Z,1002.66
2022-11-03T10:53:22.866Z,1002.58
2022-11-03T10:55:55.736Z,1002.52
2022-11-03T10:58:28.675Z,1002.43
2022-11-03T11:01:01.866Z,1002.35
2022-11-03T11:03:34.805Z,1002.28
2022-11-03T11:06:07.767Z,1002.21
2022-11-03T11:08:40.801Z,1002.13
2022-11-03T11:11:13.761Z,1002.07
2022-11-03T11:13:46.812Z,1002.02
2022-11-03T11:16:19.848Z,1001.98
2022-11-03T11:18:52.757Z,1001.94
2022-11-03T11:21:39.835Z,1001.90
2022-11-03T11:24:12.780Z,1001.86
2022-11-03T11:26:45.850Z,1001.82
2022-11-03T11:29:18.815Z,1001.77
2022-11-03T11:31:51.765Z,1001.72
2022-11-03T11:34:24.655Z,1001.66
2022-11-03T11:36:57.477Z,1001.64
2022-11-03T11:39:33.627Z,1001.62
2022-11-03T11:42:06.813Z,1001.60
2022-11-03T11:44:39.701Z,1001.58
2022-11-03T11:47:12.621Z,1001.57
2022-11-03T11:49:45.663Z,1001.56
2022-11-03T11:52:19.188Z,1001.53
2022-11-03T11:54:51.659Z,1001.52
2022-11-03T11:57:24.633Z,1001.49
2022-11-03T11:59:57.661Z,1001.46
2022-11-03T12:02:30.727Z,1001.42
2022-11-03T12:05:03.805Z,1001.36
2022-11-03T12:07:36.755Z,1001.30
2022-11-03T12:10:09.881Z,1001.24
2022-11-03T12:12:42.647Z,1001.17
2022-11-03T12:15:15.887Z,1001.08
2022-11-03T12:17:48.862Z,1001.02
2022-11-03T12:20:21.920Z,1000.95
2022-11-03T12:22:54.938Z,1000.88
2022-11-03T12:25:27.841Z,1000.81
2022-11-03T12:28:00.811Z,1000.75
2022-11-03T12:30:38.569Z,1000.69
2022-11-03T12:33:07.261Z,1000.66
2022-11-03T12:35:39.840Z,1000.61
2022-11-03T12:38:12.939Z,1000.54
2022-11-03T12:40:45.895Z,1000.49
2022-11-03T12:43:18.931Z,1000.44
2022-11-03T12:48:44.791Z,1000.35
2022-11-03T12:51:17.960Z,1000.31
2022-11-03T12:53:50.860Z,1000.26
2022-11-03T12:56:23.986Z,1000.22
2022-11-03T12:58:56.634Z,1000.17
2022-11-03T13:01:29.905Z,1000.13
2022-11-03T13:04:04.523Z,1000.10
2022-11-03T13:06:35.877Z,1000.06
2022-11-03T13:09:08.988Z,1000.00
2022-11-03T13:11:41.952Z,999.96
2022-11-03T13:14:14.951Z,999.91
2022-11-03T13:16:47.999Z,999.82
2022-11-03T13:19:20.996Z,999.74
2022-11-03T13:21:53.913Z,999.65
2022-11-03T13:24:26.896Z,999.57
2022-11-03T13:26:59.928Z,999.49
2022-11-03T13:29:35.723Z,999.39
2022-11-03T13:32:05.918Z,999.31
2022-11-03T13:34:38.904Z,999.24
2022-11-03T13:37:11.977Z,999.16
2022-11-03T13:39:45.032Z,999.08
2022-11-03T13:42:17.993Z,998.96
2022-11-03T13:44:50.751Z,998.85
2022-11-03T13:47:33.756Z,998.76
2022-11-03T13:50:13.526Z,998.67
2022-11-03T13:52:29.802Z,998.57
2022-11-03T14:00:08.931Z,998.41
2022-11-03T14:05:14.668Z,998.29
2022-11-03T14:07:47.722Z,998.26
2022-11-03T14:10:20.838Z,998.20
2022-11-03T14:12:53.851Z,998.16
2022-11-03T14:15:26.679Z,998.11
2022-11-03T14:17:59.778Z,998.09
2022-11-03T14:20:39.057Z,998.06
2022-11-03T14:23:11.692Z,998.01
2022-11-03T14:25:45.055Z,997.96
2022-11-03T14:28:25.592Z,997.93
2022-11-03T14:30:51.082Z,997.90
2022-11-03T14:33:23.982Z,997.88
2022-11-03T14:35:56.807Z,997.86
2022-11-03T14:38:29.870Z,997.82
2022-11-03T14:41:02.915Z,997.79
2022-11-03T14:43:35.718Z,997.75
2022-11-03T14:46:08.788Z,997.70
2022-11-03T14:48:42.117Z,997.65
2022-11-03T14:51:14.896Z,997.61
2022-11-03T14:53:47.782Z,997.55
2022-11-03T14:56:21.030Z,997.49
2022-11-03T14:58:54.000Z,997.44
2022-11-03T15:01:27.405Z,997.37
2022-11-03T15:04:00.019Z,997.31
2022-11-03T15:06:33.057Z,997.26
2022-11-03T15:09:06.175Z,997.22
2022-11-03T15:11:39.171Z,997.20
2022-11-03T15:14:12.145Z,997.19
2022-11-03T15:16:48.908Z,997.19
2022-11-03T15:19:22.115Z,997.18
2022-11-03T15:21:55.100Z,997.17
2022-11-03T15:27:01.129Z,997.15
2022-11-03T15:29:34.198Z,997.13
2022-11-03T15:32:07.132Z,997.09
2022-11-03T15:34:40.093Z,997.06
2022-11-03T15:37:13.078Z,997.06
2022-11-03T15:39:46.098Z,997.02
2022-11-03T15:42:19.215Z,997.01
2022-11-03T15:44:51.849Z,996.95
2022-11-03T15:47:25.129Z,996.94
2022-11-03T15:49:58.115Z,996.88
2022-11-03T15:52:31.206Z,996.83
2022-11-03T15:55:04.132Z,996.78
2022-11-03T15:57:37.269Z,996.70
2022-11-03T16:00:10.039Z,996.65
2022-11-03T16:02:43.108Z,996.63
2022-11-03T16:05:18.720Z,996.60
2022-11-03T16:07:48.880Z,996.56
2022-11-03T16:10:21.853Z,996.52
2022-11-03T16:12:55.044Z,996.44
2022-11-03T16:15:28.230Z,996.37
2022-11-03T16:18:01.135Z,996.31
2022-11-03T16:20:33.856Z,996.26
2022-11-03T16:23:07.196Z,996.20
2022-11-03T16:25:39.963Z,996.16
2022-11-03T16:28:13.233Z,996.14
2022-11-03T16:30:49.791Z,996.11
2022-11-03T16:33:19.235Z,996.09
2022-11-03T16:35:52.268Z,996.08
2022-11-03T16:38:24.900Z,996.07
2022-11-03T16:40:57.959Z,996.06
2022-11-03T16:43:31.222Z,996.08
2022-11-03T16:46:04.267Z,996.09
2022-11-03T16:48:37.201Z,996.10
2022-11-03T16:51:10.192Z,996.11
2022-11-03T16:53:43.272Z,996.09
2022-11-03T16:56:16.191Z,996.07
2022-11-03T16:58:49.243Z,996.05
2022-11-03T17:01:25.270Z,996.00
2022-11-03T17:03:58.009Z,995.96
2022-11-03T17:06:31.326Z,995.92
2022-11-03T17:09:04.295Z,995.89
2022-11-03T17:11:37.073Z,995.84
2022-11-03T17:14:09.957Z,995.77
2022-11-03T17:16:42.939Z,995.68
2022-11-03T17:19:15.985Z,995.60
2022-11-03T17:21:49.043Z,995.50
2022-11-03T17:24:21.966Z,995.40
2022-11-03T17:26:55.008Z,995.33
2022-11-03T17:29:28.345Z,995.27
2022-11-03T17:32:01.381Z,995.22
2022-11-03T17:34:34.265Z,995.19
2022-11-03T17:37:07.268Z,995.14
2022-11-03T17:39:40.397Z,995.09
2022-11-03T17:42:13.265Z,995.04
2022-11-03T17:44:46.276Z,994.99
2022-11-03T17:47:19.036Z,994.95
2022-11-03T17:49:52.115Z,994.89
2022-11-03T17:52:28.213Z,994.83
2022-11-03T17:55:11.922Z,994.80
2022-11-03T17:57:45.205Z,994.75
2022-11-03T18:00:18.201Z,994.72
2022-11-03T18:02:51.210Z,994.67
2022-11-03T18:05:24.145Z,994.65
2022-11-03T18:07:57.199Z,994.62
2022-11-03T18:10:30.022Z,994.60
2022-11-03T18:13:03.074Z,994.58
2022-11-03T18:15:36.383Z,994.56
2022-11-03T18:18:09.353Z,994.57
2022-11-03T18:20:42.112Z,994.63
2022-11-03T18:23:15.309Z,994.70
2022-11-03T18:25:48.220Z,994.73
2022-11-03T18:28:21.095Z,994.76
2022-11-03T18:30:54.261Z,994.78
2022-11-03T18:33:27.174Z,994.78
2022-11-03T18:36:00.170Z,994.78
2022-11-03T18:38:33.325Z,994.76
2022-11-03T18:41:06.057Z,994.71
2022-11-03T18:43:39.460Z,994.67
2022-11-03T18:46:12.456Z,994.66
2022-11-03T18:48:45.383Z,994.64
2022-11-03T18:51:18.339Z,994.59
2022-11-03T18:53:51.317Z,994.55
2022-11-03T18:56:24.339Z,994.49
2022-11-03T18:58:57.405Z,994.43
2022-11-03T19:01:30.364Z,994.42
2022-11-03T19:04:03.191Z,994.40
2022-11-03T19:06:36.146Z,994.39
2022-11-03T19:09:09.119Z,994.38
2022-11-03T19:11:42.311Z,994.37
2022-11-03T19:14:15.136Z,994.36
2022-11-03T19:17:08.842Z,994.32
2022-11-03T19:19:21.271Z,994.29
2022-11-03T19:21:54.481Z,994.27
2022-11-03T19:24:27.282Z,994.28
2022-11-03T19:27:00.289Z,994.28
2022-11-03T19:29:33.283Z,994.28
2022-11-03T19:32:06.259Z,994.28
2022-11-03T19:34:39.129Z,994.26
2022-11-03T19:37:12.286Z,994.25
2022-11-03T19:39:45.323Z,994.21
2022-11-03T19:42:18.137Z,994.17
2022-11-03T19:44:51.238Z,994.14
2022-11-03T19:47:26.989Z,994.09
2022-11-03T19:49:57.266Z,994.06
2022-11-03T19:52:30.320Z,994.02
2022-11-03T19:55:17.098Z,993.99
2022-11-03T19:57:50.167Z,993.95
2022-11-03T20:00:23.187Z,993.91
2022-11-03T20:02:56.529Z,993.85
2022-11-03T20:05:29.194Z,993.80
2022-11-03T20:08:02.456Z,993.76
2022-11-03T20:10:36.181Z,993.73
2022-11-03T20:13:08.744Z,993.69
2022-11-03T20:15:41.277Z,993.66
2022-11-03T20:18:14.497Z,993.63
2022-11-03T20:20:47.298Z,993.61
2022-11-03T20:23:22.342Z,993.58
2022-11-03T20:25:55.374Z,993.55
2022-11-03T20:28:28.607Z,993.54
2022-11-03T20:31:01.457Z,993.52
2022-11-03T20:33:34.694Z,993.50
2022-11-03T20:36:08.779Z,993.47
2022-11-03T20:38:42.533Z,993.44
2022-11-03T20:41:15.266Z,993.41
2022-11-03T20:43:48.488Z,993.40
2022-11-03T20:46:21.321Z,993.37
2022-11-03T20:48:54.270Z,993.32
2022-11-03T20:51:27.684Z,993.28
2022-11-03T20:54:00.393Z,993.23
2022-11-03T20:56:33.452Z,993.16
2022-11-03T20:59:06.565Z,993.10
2022-11-03T21:01:39.768Z,993.06
2022-11-03T21:04:12.371Z,993.04
2022-11-03T21:06:45.409Z,993.04
2022-11-03T21:09:18.568Z,993.02
2022-11-03T21:11:51.436Z,993.04
2022-11-03T21:14:24.604Z,993.05
2022-11-03T21:16:57.636Z,993.09
2022-11-03T21:19:30.683Z,993.12
2022-11-03T21:22:03.645Z,993.13
2022-11-03T21:24:36.654Z,993.14
2022-11-03T21:27:09.661Z,993.20
2022-11-03T21:29:59.759Z,993.26
2022-11-03T21:32:15.569Z,993.30
2022-11-03T21:34:48.423Z,993.34
2022-11-03T21:37:21.698Z,993.27
2022-11-03T21:39:54.717Z,993.14
2022-11-03T21:42:27.674Z,993.04
2022-11-03T21:45:00.650Z,992.94
2022-11-03T21:47:33.680Z,992.90
2022-11-03T21:50:06.442Z,992.86
2022-11-03T21:52:39.519Z,992.87
2022-11-03T21:55:12.459Z,992.94
2022-11-03T21:57:51.239Z,993.08
2022-11-03T22:00:24.441Z,993.22
2022-11-03T22:02:57.533Z,993.37
2022-11-03T22:05:30.465Z,993.50
2022-11-03T22:08:03.346Z,993.61
2022-11-03T22:10:36.477Z,993.70
2022-11-03T22:13:10.011Z,993.79
2022-11-03T22:15:42.686Z,993.89
2022-11-03T22:18:15.726Z,993.96
2022-11-03T22:20:48.582Z,994.03
2022-11-03T22:23:21.736Z,994.04
2022-11-03T22:25:54.789Z,994.04
2022-11-03T22:28:27.743Z,994.03
2022-11-03T22:31:00.729Z,994.06
2022-11-03T22:33:33.719Z,994.08
2022-11-03T22:36:06.744Z,994.12
2022-11-03T22:38:39.783Z,994.15
2022-11-03T22:41:12.684Z,994.17
2022-11-03T22:43:45.775Z,994.20
2022-11-03T22:46:18.757Z,994.22
2022-11-03T22:48:51.769Z,994.26
2022-11-03T22:51:24.776Z,994.31
2022-11-03T22:53:57.783Z,994.34
2022-11-03T22:56:30.778Z,994.37
2022-11-03T22:59:03.854Z,994.44
2022-11-03T23:01:36.925Z,994.48
2022-11-03T23:04:09.707Z,994.50
2022-11-03T23:06:42.755Z,994.53
2022-11-03T23:09:15.839Z,994.56
2022-11-03T23:11:48.846Z,994.59
2022-11-03T23:14:24.853Z,994.66
2022-11-03T23:16:57.862Z,994.72
2022-11-03T23:19:30.761Z,994.76
2022-11-03T23:22:03.879Z,994.76
2022-11-03T23:24:42.063Z,994.74
2022-11-03T23:27:09.797Z,994.76
2022-11-03T23:29:42.755Z,994.80
2022-11-03T23:32:15.806Z,994.82
2022-11-03T23:34:48.795Z,994.83
2022-11-03T23:37:25.862Z,994.84
2022-11-03T23:39:58.663Z,994.87
2022-11-03T23:42:31.846Z,994.90
2022-11-03T23:45:04.847Z,994.91
2022-11-03T23:47:37.905Z,994.95
2022-11-03T23:50:10.801Z,995.03
2022-11-03T23:52:43.817Z,995.10
2022-11-03T23:55:16.791Z,995.17
2022-11-03T23:57:49.785Z,995.24
